Time;durP1;ratioP1;P1;durP2;ratioP2;P2;SDS_P1;SDS_P2;PMS_P1;PMS_P2;Temp;Humidity;BMP_temperature;BMP_pressure;BME280_temperature;BME280_humidity;BME280_pressure;Samples;Min_cycle;Max_cycle;Signal;HPM_P1;HPM_P2
2022/11/12 00:00:30;;;;;;;82.53;34.15;;;11.80;99.90;;;;;;5056748;28;20025;-72
2022/11/12 00:02:56;;;;;;;99.63;36.30;;;11.80;99.90;;;;;;5056478;28;20029;-72
2022/11/12 00:05:21;;;;;;;87.57;32.65;;;11.80;99.90;;;;;;5056858;28;20108;-72
2022/11/12 00:07:47;;;;;;;92.70;35.60;;;11.80;99.90;;;;;;5056889;28;20106;-71
2022/11/12 00:10:12;;;;;;;89.15;33.95;;;11.80;99.90;;;;;;5057294;28;20025;-71
2022/11/12 00:12:38;;;;;;;97.03;35.92;;;11.80;99.90;;;;;;5056565;28;20029;-72
2022/11/12 00:15:04;;;;;;;93.78;35.80;;;11.90;99.90;;;;;;5056163;28;20029;-72
2022/11/12 00:17:30;;;;;;;92.05;34.30;;;11.90;99.90;;;;;;5056584;28;20021;-73
2022/11/12 00:19:55;;;;;;;84.45;34.45;;;11.80;99.90;;;;;;5072092;28;20028;-72
2022/11/12 00:22:21;;;;;;;85.75;35.35;;;11.80;99.90;;;;;;5057022;28;20036;-71
2022/11/12 00:24:46;;;;;;;86.18;35.20;;;11.80;99.90;;;;;;5056447;28;20021;-72
2022/11/12 00:27:12;;;;;;;82.90;35.60;;;11.80;99.90;;;;;;5056362;28;20029;-72
2022/11/12 00:29:38;;;;;;;89.03;36.50;;;11.80;99.90;;;;;;5056349;28;20480;-72
2022/11/12 00:32:08;;;;;;;94.68;35.15;;;11.80;99.90;;;;;;5056489;28;20041;-72
2022/11/12 00:34:35;;;;;;;91.38;35.55;;;11.80;99.90;;;;;;5056462;28;20029;-71
2022/11/12 00:37:01;;;;;;;139.90;39.22;;;11.80;99.90;;;;;;5056294;28;20412;-72
2022/11/12 00:39:27;;;;;;;93.15;35.25;;;11.90;99.90;;;;;;5056100;28;20025;-72
2022/11/12 00:41:53;;;;;;;93.32;34.97;;;11.80;99.90;;;;;;5055500;28;20025;-72
2022/11/12 00:44:19;;;;;;;94.53;36.28;;;11.90;99.90;;;;;;5056134;28;20063;-71
2022/11/12 00:46:45;;;;;;;98.82;38.60;;;11.90;99.90;;;;;;5056140;28;20102;-71
2022/11/12 00:49:10;;;;;;;110.57;36.53;;;11.90;99.90;;;;;;5056227;28;20033;-72
2022/11/12 00:51:36;;;;;;;95.70;35.30;;;11.90;99.90;;;;;;5056181;28;20035;-72
2022/11/12 00:54:03;;;;;;;105.93;35.08;;;11.90;99.90;;;;;;5056551;28;20108;-73
2022/11/12 00:56:28;;;;;;;85.35;34.05;;;11.90;99.90;;;;;;5075410;28;20013;-72
2022/11/12 00:58:54;;;;;;;88.75;35.38;;;11.90;99.90;;;;;;5075886;28;20395;-71
2022/11/12 01:01:20;;;;;;;101.63;35.20;;;11.90;99.90;;;;;;5075916;28;20025;-72
2022/11/12 01:03:45;;;;;;;91.18;36.92;;;11.90;99.90;;;;;;5075874;28;20029;-72
2022/11/12 01:06:17;;;;;;;107.57;36.53;;;12.00;99.90;;;;;;5057746;28;20491;-72
2022/11/12 01:08:43;;;;;;;87.18;34.00;;;11.90;99.90;;;;;;5075658;28;20020;-71
2022/11/12 01:11:21;;;;;;;79.45;33.80;;;12.00;99.90;;;;;;5075682;28;20054;-72
2022/11/12 01:13:53;;;;;;;84.65;34.38;;;12.00;99.90;;;;;;5057549;28;20028;-72
2022/11/12 01:16:21;;;;;;;85.28;34.47;;;11.90;99.90;;;;;;5075594;28;20029;-72
2022/11/12 01:18:51;;;;;;;86.43;34.13;;;11.90;99.90;;;;;;5075108;28;20226;-72
2022/11/12 01:21:16;;;;;;;77.10;32.10;;;12.00;99.90;;;;;;5058322;28;20025;-72
2022/11/12 01:23:42;;;;;;;105.97;34.72;;;11.90;99.90;;;;;;5055544;28;20036;-72
2022/11/12 01:26:13;;;;;;;101.65;32.88;;;11.90;99.90;;;;;;5054782;28;20156;-72
2022/11/12 01:28:40;;;;;;;95.35;33.80;;;11.90;99.90;;;;;;5055557;28;20033;-71
2022/11/12 01:31:27;;;;;;;90.30;30.63;;;11.90;99.90;;;;;;5053912;28;20051;-72
2022/11/12 01:33:55;;;;;;;87.35;33.60;;;11.90;99.90;;;;;;5055126;28;20380;-72
2022/11/12 01:36:21;;;;;;;79.15;33.85;;;11.90;99.90;;;;;;5054658;28;20021;-72
2022/11/12 01:38:48;;;;;;;76.63;34.15;;;12.00;99.90;;;;;;5055065;28;20021;-72
2022/11/12 01:41:19;;;;;;;89.47;33.47;;;12.00;99.90;;;;;;5055498;28;20147;-71
2022/11/12 01:43:45;;;;;;;97.00;33.45;;;12.00;99.90;;;;;;5054777;28;20504;-72
2022/11/12 01:46:24;;;;;;;80.32;35.20;;;12.00;99.90;;;;;;5054907;28;20044;-71
2022/11/12 01:49:02;;;;;;;104.07;36.40;;;12.00;99.90;;;;;;5060537;28;20094;-72
2022/11/12 01:51:34;;;;;;;98.47;36.58;;;11.90;99.90;;;;;;5075556;28;20515;-72
2022/11/12 01:54:06;;;;;;;107.05;40.38;;;11.90;99.90;;;;;;5074685;28;20391;-72
2022/11/12 01:56:32;;;;;;;108.70;39.17;;;11.90;99.90;;;;;;5075354;28;20024;-71
2022/11/12 01:59:14;;;;;;;102.03;39.83;;;11.90;99.90;;;;;;5074703;28;20020;-72
2022/11/12 02:01:42;;;;;;;89.80;36.13;;;11.90;99.90;;;;;;5056162;28;20048;-72
2022/11/12 02:04:08;;;;;;;102.43;37.20;;;11.90;99.90;;;;;;5073195;28;20098;-72
2022/11/12 02:06:34;;;;;;;112.97;40.50;;;11.90;99.90;;;;;;5054785;28;20029;-71
2022/11/12 02:09:00;;;;;;;106.05;38.42;;;11.90;99.90;;;;;;5054509;28;20515;-72
2022/11/12 02:11:25;;;;;;;96.75;38.40;;;11.90;99.90;;;;;;5053927;28;20060;-72
2022/11/12 02:14:00;;;;;;;95.53;39.03;;;12.00;99.90;;;;;;5054297;28;20090;-71
2022/11/12 02:16:36;;;;;;;103.93;37.97;;;11.90;99.90;;;;;;5054587;28;20017;-72
2022/11/12 02:19:04;;;;;;;95.18;39.67;;;12.00;99.90;;;;;;5054715;28;20092;-71
2022/11/12 02:21:30;;;;;;;90.22;36.58;;;12.00;99.90;;;;;;5067519;28;20094;-72
2022/11/12 02:24:03;;;;;;;112.35;40.28;;;12.00;99.90;;;;;;5073594;28;20028;-72
2022/11/12 02:26:34;;;;;;;97.30;38.08;;;11.90;99.90;;;;;;5074135;28;20021;-72
2022/11/12 02:29:00;;;;;;;106.63;38.78;;;12.00;99.90;;;;;;5075289;28;20042;-71
2022/11/12 02:31:25;;;;;;;86.28;38.28;;;11.90;99.90;;;;;;5073760;28;20511;-72
2022/11/12 02:33:51;;;;;;;106.28;39.08;;;12.00;99.90;;;;;;5053514;28;20036;-72
2022/11/12 02:36:17;;;;;;;104.65;39.55;;;12.00;99.90;;;;;;5054191;28;20021;-72
2022/11/12 02:38:42;;;;;;;103.35;41.47;;;11.90;99.90;;;;;;5054302;28;20025;-72
2022/11/12 02:41:08;;;;;;;102.18;39.97;;;11.90;99.90;;;;;;5054336;28;20429;-71
2022/11/12 02:43:33;;;;;;;111.30;44.28;;;11.90;99.90;;;;;;5053273;28;20547;-72
2022/11/12 02:45:59;;;;;;;102.10;42.97;;;11.90;99.90;;;;;;5053956;28;20071;-71
2022/11/12 02:48:24;;;;;;;93.68;40.47;;;11.90;99.90;;;;;;5054275;28;20098;-71
2022/11/12 02:50:50;;;;;;;102.07;40.10;;;11.90;99.90;;;;;;5053972;28;20388;-71
2022/11/12 02:53:15;;;;;;;101.10;40.33;;;11.90;99.90;;;;;;5053905;28;20021;-72
2022/11/12 02:55:42;;;;;;;108.95;40.50;;;11.90;99.90;;;;;;5055354;28;20076;-72
2022/11/12 02:58:08;;;;;;;102.88;41.28;;;11.90;99.90;;;;;;5053626;28;20441;-72
2022/11/12 03:00:33;;;;;;;96.32;38.25;;;11.90;99.90;;;;;;5055194;28;20025;-71
2022/11/12 03:02:59;;;;;;;104.50;40.47;;;11.90;99.90;;;;;;5053959;28;20094;-72
2022/11/12 03:05:26;;;;;;;91.72;38.45;;;11.90;99.90;;;;;;5053769;28;20040;-72
2022/11/12 03:08:04;;;;;;;87.00;37.97;;;11.90;99.90;;;;;;5053282;28;20065;-72
2022/11/12 03:10:30;;;;;;;88.97;38.42;;;11.90;99.90;;;;;;5054171;28;20381;-72
2022/11/12 03:12:58;;;;;;;96.35;39.83;;;11.90;99.90;;;;;;5053611;28;20041;-72
2022/11/12 03:15:24;;;;;;;107.15;40.58;;;11.90;99.90;;;;;;5054207;28;20021;-72
2022/11/12 03:17:49;;;;;;;92.45;37.47;;;11.90;99.90;;;;;;5057981;28;20036;-72
2022/11/12 03:20:15;;;;;;;82.40;35.42;;;12.00;99.90;;;;;;5057924;28;20029;-72
2022/11/12 03:22:41;;;;;;;97.57;37.55;;;12.00;99.90;;;;;;5057601;28;20025;-72
2022/11/12 03:25:08;;;;;;;74.93;32.08;;;11.90;99.90;;;;;;5057914;28;20029;-72
2022/11/12 03:27:34;;;;;;;74.03;32.63;;;11.90;99.90;;;;;;5057828;28;20043;-72
2022/11/12 03:29:59;;;;;;;86.03;33.58;;;11.90;99.90;;;;;;5057881;28;20025;-72
2022/11/12 03:32:28;;;;;;;82.15;33.83;;;11.90;99.90;;;;;;5057541;28;20021;-72
2022/11/12 03:34:53;;;;;;;85.40;33.30;;;11.90;99.90;;;;;;5056906;28;20047;-72
2022/11/12 03:37:19;;;;;;;83.75;32.78;;;12.00;99.90;;;;;;5057453;28;20025;-72
2022/11/12 03:39:44;;;;;;;80.50;32.92;;;12.00;99.90;;;;;;5057648;28;20098;-72
2022/11/12 03:42:10;;;;;;;76.75;34.05;;;12.00;99.90;;;;;;5057154;28;20565;-72
2022/11/12 03:44:35;;;;;;;93.68;33.08;;;12.00;99.90;;;;;;5057903;28;20036;-72
2022/11/12 03:47:01;;;;;;;82.57;30.90;;;12.00;99.90;;;;;;5057067;28;20221;-72
2022/11/12 03:49:26;;;;;;;86.18;32.85;;;12.10;99.90;;;;;;5057354;28;20373;-72
2022/11/12 03:51:52;;;;;;;80.57;32.15;;;12.10;99.90;;;;;;5055815;28;20050;-72
2022/11/12 03:54:18;;;;;;;67.80;31.85;;;12.10;99.90;;;;;;5057058;28;20399;-72
2022/11/12 03:56:44;;;;;;;85.20;31.30;;;12.10;99.90;;;;;;5056633;28;20021;-72
2022/11/12 03:59:09;;;;;;;89.25;32.97;;;12.20;99.90;;;;;;5057000;28;20021;-71
2022/11/12 04:01:36;;;;;;;67.28;31.13;;;12.20;99.90;;;;;;5057574;28;20033;-72
2022/11/12 04:04:02;;;;;;;75.53;32.13;;;12.20;99.90;;;;;;5056280;28;20033;-73
2022/11/12 04:09:12;;;;;;;77.15;29.52;;;12.20;99.90;;;;;;5057184;28;20036;-72
2022/11/12 04:11:37;;;;;;;84.93;28.52;;;12.20;99.90;;;;;;5056700;28;20029;-72
2022/11/12 04:14:03;;;;;;;83.25;31.42;;;12.20;99.90;;;;;;5068371;28;20032;-73
2022/11/12 04:22:04;;;;;;;64.03;29.95;;;12.20;99.90;;;;;;5066023;28;20027;-72
2022/11/12 04:27:22;;;;;;;69.80;27.98;;;12.20;99.90;;;;;;5055451;28;20032;-72
2022/11/12 04:32:35;;;;;;;70.22;29.23;;;12.10;99.90;;;;;;5056349;28;20036;-72
2022/11/12 04:35:01;;;;;;;77.97;32.45;;;12.10;99.90;;;;;;5056652;28;20029;-72
2022/11/12 04:37:28;;;;;;;74.05;31.73;;;12.20;99.90;;;;;;5056988;28;20048;-72
2022/11/12 04:39:54;;;;;;;85.72;30.67;;;12.10;99.90;;;;;;5054456;28;20028;-72
2022/11/12 04:45:07;;;;;;;80.25;31.98;;;12.10;99.90;;;;;;5045851;28;20401;-76
2022/11/12 04:47:35;;;;;;;77.75;32.63;;;12.10;99.90;;;;;;5035962;28;20100;-76
2022/11/12 04:50:07;;;;;;;95.38;34.55;;;12.10;99.90;;;;;;5035979;28;20025;-76
2022/11/12 04:52:33;;;;;;;76.45;35.10;;;12.10;99.90;;;;;;5036417;28;20053;-76
2022/11/12 04:54:59;;;;;;;84.43;33.95;;;12.10;99.90;;;;;;5035796;28;20065;-76
2022/11/12 04:57:25;;;;;;;78.78;33.28;;;12.10;99.90;;;;;;5018105;28;20091;-76
2022/11/12 04:59:51;;;;;;;83.28;32.97;;;12.10;99.90;;;;;;5035823;28;20013;-76
2022/11/12 05:02:17;;;;;;;81.35;32.25;;;12.10;99.90;;;;;;5036022;28;20099;-75
2022/11/12 05:04:42;;;;;;;89.88;35.03;;;12.10;99.90;;;;;;5035201;28;20538;-76
2022/11/12 05:07:09;;;;;;;79.68;34.08;;;12.10;99.90;;;;;;5035718;28;20041;-76
2022/11/12 05:09:34;;;;;;;88.05;35.30;;;12.10;99.90;;;;;;5035586;28;20126;-76
2022/11/12 05:12:00;;;;;;;84.82;34.80;;;12.10;99.90;;;;;;5018037;28;20053;-76
2022/11/12 05:14:26;;;;;;;87.93;33.30;;;12.10;99.90;;;;;;5035428;28;20034;-76
2022/11/12 05:16:51;;;;;;;78.30;33.95;;;12.10;99.90;;;;;;5035190;28;20415;-75
2022/11/12 05:19:17;;;;;;;82.78;34.13;;;12.10;99.90;;;;;;5035280;28;20018;-76
2022/11/12 05:24:28;;;;;;;80.28;31.70;;;12.00;99.90;;;;;;5035353;28;20032;-76
2022/11/12 05:26:53;;;;;;;86.60;33.28;;;12.00;99.90;;;;;;5017489;28;20026;-75
2022/11/12 05:29:19;;;;;;;86.13;34.13;;;12.00;99.90;;;;;;5016954;28;20025;-76
2022/11/12 05:31:45;;;;;;;84.93;33.50;;;12.10;99.90;;;;;;5035206;28;20026;-76
2022/11/12 05:34:11;;;;;;;88.03;33.13;;;12.00;99.90;;;;;;5034968;28;20025;-76
2022/11/12 05:36:36;;;;;;;72.65;33.22;;;12.00;99.90;;;;;;5035362;28;20029;-76
2022/11/12 05:39:03;;;;;;;88.75;33.00;;;12.00;99.90;;;;;;5034317;28;20098;-76
2022/11/12 05:41:29;;;;;;;92.10;33.58;;;12.00;99.90;;;;;;5035239;28;20034;-76
2022/11/12 05:43:54;;;;;;;81.05;32.35;;;12.00;99.90;;;;;;5044479;28;20033;-76
2022/11/12 05:46:20;;;;;;;83.85;31.45;;;12.00;99.90;;;;;;5053600;28;20066;-76
2022/11/12 05:48:46;;;;;;;72.78;29.75;;;12.00;99.90;;;;;;5054786;28;20096;-76
2022/11/12 05:51:14;;;;;;;82.18;31.30;;;11.90;99.90;;;;;;5054883;28;20502;-75
2022/11/12 05:53:43;;;;;;;59.13;29.65;;;11.90;99.90;;;;;;5053910;28;20036;-76
2022/11/12 05:56:09;;;;;;;74.00;28.67;;;12.00;99.90;;;;;;5055033;28;20022;-76
2022/11/12 05:58:35;;;;;;;80.95;27.88;;;12.00;99.90;;;;;;5036634;28;20071;-76
2022/11/12 06:01:00;;;;;;;68.55;28.33;;;12.00;99.90;;;;;;5054517;28;20033;-76
2022/11/12 06:03:26;;;;;;;71.20;29.75;;;12.00;99.90;;;;;;5054043;28;20048;-76
2022/11/12 06:05:52;;;;;;;66.88;29.17;;;12.00;99.90;;;;;;5054499;28;20025;-76
2022/11/12 06:08:18;;;;;;;76.30;28.92;;;12.00;99.90;;;;;;5054390;28;20025;-76
2022/11/12 06:10:51;;;;;;;67.15;30.60;;;12.00;99.90;;;;;;5054358;28;20511;-76
2022/11/12 06:13:17;;;;;;;67.05;29.35;;;12.00;99.90;;;;;;5047390;28;20029;-75
2022/11/12 06:15:42;;;;;;;66.60;29.02;;;12.00;99.90;;;;;;5034305;28;20112;-75
2022/11/12 06:18:08;;;;;;;59.90;26.65;;;12.00;99.90;;;;;;5034777;28;20504;-76
2022/11/12 06:20:34;;;;;;;67.28;29.50;;;11.90;99.90;;;;;;5034833;28;20128;-76
2022/11/12 06:23:00;;;;;;;64.43;28.90;;;11.90;99.90;;;;;;5033806;28;20025;-74
2022/11/12 06:25:25;;;;;;;66.93;28.85;;;12.00;99.90;;;;;;5034364;28;20159;-76
2022/11/12 06:27:51;;;;;;;62.03;28.00;;;11.90;99.90;;;;;;5016606;28;20051;-76
2022/11/12 06:30:16;;;;;;;63.70;27.98;;;12.00;99.90;;;;;;5033919;28;20024;-76
2022/11/12 06:32:45;;;;;;;81.53;28.45;;;12.00;99.90;;;;;;5033940;28;20084;-75
2022/11/12 06:35:11;;;;;;;53.10;26.83;;;12.00;99.90;;;;;;5033641;28;20022;-76
2022/11/12 06:37:37;;;;;;;51.72;25.65;;;12.00;99.90;;;;;;5034560;28;20032;-76
2022/11/12 06:40:03;;;;;;;64.53;27.17;;;12.00;99.90;;;;;;5033897;28;20052;-75
2022/11/12 06:42:28;;;;;;;58.25;26.83;;;12.00;99.90;;;;;;5033651;28;20022;-76
2022/11/12 06:44:54;;;;;;;59.80;26.90;;;12.00;99.90;;;;;;5034179;28;20469;-76
2022/11/12 06:47:19;;;;;;;60.35;25.20;;;12.00;99.90;;;;;;5034983;28;20060;-76
2022/11/12 06:49:45;;;;;;;49.72;23.85;;;12.00;99.90;;;;;;5015378;28;20022;-76
2022/11/12 06:52:10;;;;;;;54.50;24.95;;;11.90;99.90;;;;;;5015697;28;20389;-76
2022/11/12 06:54:36;;;;;;;51.40;25.63;;;11.90;99.90;;;;;;5033852;28;20036;-76
2022/11/12 06:57:01;;;;;;;50.30;24.05;;;11.90;99.90;;;;;;5033568;28;20032;-76
2022/11/12 06:59:27;;;;;;;57.53;28.13;;;12.00;99.90;;;;;;5033572;28;20033;-76
2022/11/12 07:01:53;;;;;;;67.90;27.13;;;11.90;99.90;;;;;;5033840;28;20032;-76
2022/11/12 07:04:18;;;;;;;55.17;24.50;;;12.00;99.90;;;;;;5033583;28;20374;-76
2022/11/12 07:06:44;;;;;;;62.65;26.45;;;12.00;99.90;;;;;;5016406;28;20414;-76
2022/11/12 07:09:10;;;;;;;55.63;23.98;;;11.90;99.90;;;;;;5033650;28;20034;-76
2022/11/12 07:11:36;;;;;;;62.40;25.00;;;11.90;99.90;;;;;;5033015;28;20120;-76
2022/11/12 07:14:05;;;;;;;65.15;27.02;;;11.90;99.90;;;;;;5033457;28;20100;-76
2022/11/12 07:16:31;;;;;;;63.67;28.25;;;11.90;99.90;;;;;;5033496;28;20524;-76
2022/11/12 07:18:56;;;;;;;56.42;26.90;;;11.90;99.90;;;;;;5033110;28;20037;-76
2022/11/12 07:21:22;;;;;;;55.55;27.20;;;11.90;99.90;;;;;;5016166;28;20025;-76
2022/11/12 07:23:48;;;;;;;65.93;27.45;;;11.90;99.90;;;;;;5033553;28;20084;-76
2022/11/12 07:26:15;;;;;;;61.03;28.73;;;11.90;99.90;;;;;;5015787;28;20167;-76
2022/11/12 07:28:40;;;;;;;65.15;28.23;;;11.90;99.90;;;;;;5015760;28;20029;-76
2022/11/12 07:31:10;;;;;;;54.25;28.75;;;11.90;99.90;;;;;;5032789;28;20041;-76
2022/11/12 07:33:36;;;;;;;53.15;25.88;;;11.90;99.90;;;;;;5033389;28;20026;-76
2022/11/12 07:36:04;;;;;;;51.28;27.20;;;12.00;99.90;;;;;;5033555;28;20096;-76
2022/11/12 07:38:32;;;;;;;50.92;25.95;;;12.00;99.90;;;;;;5032749;28;20036;-76
2022/11/12 07:41:04;;;;;;;48.88;24.42;;;11.90;99.90;;;;;;5015496;28;20021;-76
2022/11/12 07:43:30;;;;;;;53.47;24.88;;;12.00;99.90;;;;;;5033180;28;20041;-76
2022/11/12 07:45:58;;;;;;;58.70;28.35;;;12.00;99.90;;;;;;5033637;28;20037;-76
2022/11/12 07:48:23;;;;;;;51.42;26.45;;;12.00;99.90;;;;;;5032700;28;20029;-76
2022/11/12 07:50:49;;;;;;;54.03;26.33;;;12.00;99.90;;;;;;5033306;28;20029;-76
2022/11/12 07:53:14;;;;;;;60.47;26.13;;;12.00;99.90;;;;;;5033358;28;20071;-76
2022/11/12 07:55:40;;;;;;;53.13;24.25;;;11.90;99.90;;;;;;5015474;28;20025;-76
2022/11/12 07:58:05;;;;;;;42.47;21.15;;;12.00;99.90;;;;;;5033209;28;20029;-76
2022/11/12 08:00:31;;;;;;;59.55;26.13;;;12.00;99.90;;;;;;5020526;28;20022;-76
2022/11/12 08:02:59;;;;;;;63.85;28.95;;;12.10;99.90;;;;;;5055681;28;20028;-76
2022/11/12 08:05:25;;;;;;;55.03;25.73;;;12.00;99.90;;;;;;5056750;28;20017;-76
2022/11/12 08:07:53;;;;;;;67.20;28.95;;;12.00;99.90;;;;;;5056298;28;20028;-76
2022/11/12 08:10:19;;;;;;;55.75;27.30;;;12.00;99.90;;;;;;5038788;28;20053;-76
2022/11/12 08:12:44;;;;;;;61.95;28.80;;;12.00;99.90;;;;;;5056456;28;20095;-76
2022/11/12 08:15:10;;;;;;;60.45;29.90;;;12.00;99.90;;;;;;5056628;28;20104;-76
2022/11/12 08:17:39;;;;;;;59.75;32.60;;;12.00;99.90;;;;;;5038805;28;20021;-76
2022/11/12 08:20:05;;;;;;;51.03;26.60;;;12.00;99.90;;;;;;5054974;28;20028;-76
2022/11/12 08:22:31;;;;;;;60.05;28.70;;;12.00;99.90;;;;;;5056314;28;20020;-75
2022/11/12 08:24:57;;;;;;;60.75;28.40;;;12.00;99.90;;;;;;5036381;28;20033;-75
2022/11/12 08:27:22;;;;;;;60.92;29.45;;;12.00;99.90;;;;;;5026423;28;20032;-75
2022/11/12 08:29:48;;;;;;;58.30;30.45;;;11.90;99.90;;;;;;5041646;28;20436;-75
2022/11/12 08:32:14;;;;;;;63.83;30.23;;;11.80;99.90;;;;;;5034506;28;20052;-75
2022/11/12 08:34:40;;;;;;;53.30;28.77;;;11.80;99.90;;;;;;5047299;28;20028;-75
2022/11/12 08:37:06;;;;;;;58.80;29.90;;;11.80;99.90;;;;;;5038270;28;20464;-75
2022/11/12 08:39:31;;;;;;;54.38;29.10;;;11.80;99.90;;;;;;5056083;28;20397;-76
2022/11/12 08:41:57;;;;;;;50.05;29.33;;;11.80;99.90;;;;;;5020071;28;20060;-76
2022/11/12 08:44:22;;;;;;;50.95;28.52;;;11.70;99.90;;;;;;5035928;28;20045;-76
2022/11/12 08:46:49;;;;;;;56.33;30.33;;;11.70;99.90;;;;;;5035940;28;20029;-75
2022/11/12 08:49:15;;;;;;;55.38;28.33;;;11.70;99.90;;;;;;5018513;28;20473;-75
2022/11/12 08:51:40;;;;;;;55.13;29.50;;;11.70;99.90;;;;;;5036398;28;20034;-75
2022/11/12 08:54:06;;;;;;;49.90;28.08;;;11.70;99.90;;;;;;5035209;28;20051;-75
2022/11/12 08:56:32;;;;;;;61.63;30.80;;;11.70;99.90;;;;;;5035913;28;20096;-75
2022/11/12 08:58:58;;;;;;;60.35;29.95;;;11.70;99.90;;;;;;5036001;28;20022;-76
2022/11/12 09:01:24;;;;;;;57.35;29.23;;;11.80;99.90;;;;;;5035462;28;20021;-75
2022/11/12 09:03:50;;;;;;;54.58;27.90;;;11.60;99.90;;;;;;5035776;28;20037;-75
2022/11/12 09:06:15;;;;;;;51.45;28.85;;;11.80;99.90;;;;;;5035793;28;20025;-75
2022/11/12 09:08:41;;;;;;;52.78;27.75;;;11.80;99.90;;;;;;5036275;28;20100;-76
2022/11/12 09:11:07;;;;;;;45.83;29.15;;;11.80;99.90;;;;;;5035672;28;20100;-76
2022/11/12 09:13:33;;;;;;;52.25;28.15;;;11.80;99.90;;;;;;5016352;28;20370;-76
2022/11/12 09:16:00;;;;;;;50.60;27.50;;;11.80;99.90;;;;;;5035408;28;20045;-75
2022/11/12 09:18:26;;;;;;;53.88;27.77;;;11.80;99.90;;;;;;5035590;28;20024;-75
2022/11/12 09:20:51;;;;;;;46.97;26.77;;;11.80;99.90;;;;;;5035720;28;20022;-75
2022/11/12 09:23:17;;;;;;;52.60;24.00;;;11.90;99.90;;;;;;5035348;28;20037;-75
2022/11/12 09:25:43;;;;;;;46.15;25.77;;;11.90;99.90;;;;;;5035082;28;20033;-75
2022/11/12 09:28:17;;;;;;;52.60;29.15;;;12.00;99.90;;;;;;5035288;28;20021;-75
2022/11/12 09:30:45;;;;;;;48.67;28.00;;;11.90;99.90;;;;;;5035396;28;20111;-75
2022/11/12 09:33:12;;;;;;;48.72;29.55;;;12.00;99.90;;;;;;5035078;28;20101;-75
2022/11/12 09:35:38;;;;;;;54.28;28.13;;;12.00;99.90;;;;;;5035098;28;20512;-75
2022/11/12 09:38:03;;;;;;;56.97;29.42;;;12.00;99.90;;;;;;5016870;28;20030;-75
2022/11/12 09:40:41;;;;;;;48.60;28.58;;;11.90;99.90;;;;;;5034847;28;20024;-75
2022/11/12 09:43:27;;;;;;;47.28;27.50;;;11.90;99.90;;;;;;5034950;28;20029;-75
2022/11/12 09:45:56;;;;;;;62.17;31.02;;;11.80;99.90;;;;;;5016616;28;20044;-75
2022/11/12 09:48:27;;;;;;;52.72;28.60;;;11.80;99.90;;;;;;5035068;28;20018;-75
2022/11/12 09:50:59;;;;;;;53.10;28.75;;;11.80;99.90;;;;;;5034757;28;20021;-75
2022/11/12 09:54:12;;;;;;;52.72;28.63;;;11.90;99.90;;;;;;5035012;28;20096;-75
2022/11/12 09:56:37;;;;;;;53.28;27.55;;;11.90;99.90;;;;;;4973603;28;20123;-76
2022/11/12 09:59:10;;;;;;;57.92;28.60;;;11.90;99.90;;;;;;5027476;28;20029;-76
2022/11/12 10:01:59;;;;;;;50.50;27.40;;;12.00;99.90;;;;;;5035027;28;20029;-76
2022/11/12 10:04:44;;;;;;;52.33;26.27;;;12.00;99.90;;;;;;5034702;28;20033;-76
2022/11/12 10:07:42;;;;;;;57.38;27.25;;;12.00;99.90;;;;;;5033761;28;20021;-75
2022/11/12 10:10:23;;;;;;;46.35;26.95;;;12.10;99.90;;;;;;5006263;28;20567;-75
2022/11/12 10:13:10;;;;;;;52.75;28.15;;;12.10;99.90;;;;;;5034118;28;20096;-74
2022/11/12 10:18:51;;;;;;;46.15;27.90;;;12.10;99.90;;;;;;5033539;28;20036;-75
2022/11/12 10:21:31;;;;;;;51.80;25.83;;;12.20;99.90;;;;;;5034233;28;20024;-75
2022/11/12 10:23:58;;;;;;;48.75;28.23;;;12.20;99.90;;;;;;5032713;28;20026;-75
2022/11/12 10:26:24;;;;;;;42.22;25.02;;;12.10;99.90;;;;;;5033764;28;20022;-75
2022/11/12 10:29:17;;;;;;;50.38;27.83;;;12.20;99.90;;;;;;5016304;28;20029;-75
2022/11/12 10:31:43;;;;;;;44.17;26.38;;;12.20;99.90;;;;;;5034112;28;20025;-75
2022/11/12 10:34:20;;;;;;;43.70;26.35;;;12.10;99.90;;;;;;5033364;28;20033;-75
2022/11/12 10:36:52;;;;;;;53.15;26.77;;;12.10;99.90;;;;;;5032587;28;20397;-75
2022/11/12 10:39:36;;;;;;;44.25;27.27;;;12.20;99.90;;;;;;5034009;28;20021;-75
2022/11/12 10:42:05;;;;;;;48.85;26.65;;;12.10;99.90;;;;;;5033920;28;20017;-76
2022/11/12 10:44:31;;;;;;;48.60;27.25;;;12.10;99.90;;;;;;5117031;23;20496;-71
2022/11/12 10:47:20;;;;;;;41.63;27.20;;;12.00;99.90;;;;;;5074915;28;20032;-71
2022/11/12 10:50:00;;;;;;;47.75;26.48;;;12.10;99.90;;;;;;5074628;28;20039;-71
2022/11/12 10:52:26;;;;;;;40.13;25.98;;;12.00;99.90;;;;;;5055893;28;20103;-70
2022/11/12 10:55:12;;;;;;;48.83;28.88;;;12.00;99.90;;;;;;5064038;28;20462;-71
2022/11/12 10:57:38;;;;;;;57.65;28.25;;;12.00;99.90;;;;;;5054026;28;20075;-70
2022/11/12 11:00:13;;;;;;;44.95;28.05;;;12.00;99.90;;;;;;5052403;28;20022;-71
2022/11/12 11:02:49;;;;;;;50.00;27.40;;;12.10;99.90;;;;;;5053661;28;20024;-71
2022/11/12 11:05:29;;;;;;;44.75;26.88;;;12.10;99.90;;;;;;5053919;28;20021;-71
2022/11/12 11:07:56;;;;;;;41.67;26.83;;;12.00;99.90;;;;;;5052268;28;20025;-74
2022/11/12 11:10:35;;;;;;;55.15;29.75;;;12.10;99.90;;;;;;5053849;28;20468;-72
2022/11/12 11:13:21;;;;;;;46.28;27.80;;;12.10;99.90;;;;;;5053751;28;20032;-71
2022/11/12 11:16:01;;;;;;;49.42;27.80;;;12.00;99.90;;;;;;5053686;28;20044;-71
2022/11/12 11:18:29;;;;;;;44.10;29.02;;;12.10;99.90;;;;;;5053905;28;20033;-71
2022/11/12 11:21:04;;;;;;;52.15;28.42;;;12.10;99.90;;;;;;5053113;28;20030;-72
2022/11/12 11:23:48;;;;;;;45.35;27.58;;;12.10;99.90;;;;;;5053656;28;20036;-71
2022/11/12 11:26:27;;;;;;;47.83;28.25;;;12.20;99.90;;;;;;5054074;28;20412;-74
2022/11/12 11:29:32;;;;;;;57.75;31.13;;;12.20;99.90;;;;;;5046206;28;20035;-72
2022/11/12 11:32:05;;;;;;;56.10;30.65;;;12.20;99.90;;;;;;5051704;28;20594;-71
2022/11/12 11:34:43;;;;;;;55.45;31.83;;;12.20;99.90;;;;;;5066071;28;20035;-71
2022/11/12 11:37:26;;;;;;;56.10;31.52;;;12.20;99.90;;;;;;5057006;28;20031;-72
2022/11/12 11:40:09;;;;;;;60.45;31.65;;;12.20;99.90;;;;;;5071396;28;20044;-72
2022/11/12 11:42:53;;;;;;;48.95;30.30;;;12.30;99.90;;;;;;5057243;28;20104;-71
2022/11/12 11:45:42;;;;;;;52.53;31.08;;;12.20;99.90;;;;;;5065998;28;20024;-71
2022/11/12 11:48:13;;;;;;;61.00;30.73;;;12.20;99.90;;;;;;5047851;28;20041;-71
2022/11/12 11:50:45;;;;;;;73.80;30.75;;;12.20;99.90;;;;;;5057471;28;20023;-71
2022/11/12 11:53:25;;;;;;;56.75;30.83;;;12.20;99.90;;;;;;5056224;28;20052;-71
2022/11/12 11:56:01;;;;;;;64.13;33.38;;;12.30;99.90;;;;;;5056990;28;20028;-71
2022/11/12 11:58:40;;;;;;;61.83;31.40;;;12.20;99.90;;;;;;5056905;28;20465;-71
2022/11/12 12:01:11;;;;;;;63.88;30.90;;;12.30;99.90;;;;;;5057015;28;20399;-71
2022/11/12 12:03:53;;;;;;;56.05;30.05;;;12.30;99.90;;;;;;5062347;28;20114;-71
2022/11/12 12:06:30;;;;;;;62.13;30.00;;;12.40;99.90;;;;;;5062487;28;20400;-71
2022/11/12 12:09:06;;;;;;;58.00;30.80;;;12.40;99.90;;;;;;5055733;28;20025;-71
2022/11/12 12:11:40;;;;;;;61.78;29.50;;;12.40;99.90;;;;;;5057077;28;20100;-71
2022/11/12 12:14:31;;;;;;;55.60;28.05;;;12.40;99.90;;;;;;5056775;28;20032;-72
2022/11/12 12:17:34;;;;;;;52.97;30.48;;;12.30;99.90;;;;;;5056671;28;20075;-71
2022/11/12 12:20:04;;;;;;;56.30;29.00;;;12.40;99.90;;;;;;5013389;28;20504;-72
2022/11/12 12:22:50;;;;;;;56.70;28.08;;;12.40;99.90;;;;;;5056963;28;20384;-71
2022/11/12 12:25:22;;;;;;;56.35;27.20;;;12.40;99.90;;;;;;5056582;28;20035;-72
2022/11/12 12:28:01;;;;;;;53.13;27.30;;;12.30;99.90;;;;;;5056725;28;20024;-71
2022/11/12 12:30:33;;;;;;;46.85;26.95;;;12.30;99.90;;;;;;5056944;28;20485;-71
2022/11/12 12:33:30;;;;;;;57.33;27.13;;;12.30;99.90;;;;;;5056862;28;20116;-71
2022/11/12 12:36:01;;;;;;;51.75;25.45;;;12.20;99.90;;;;;;5054093;28;20032;-71
2022/11/12 12:38:41;;;;;;;48.30;24.65;;;12.20;99.90;;;;;;5060781;28;20021;-71
2022/11/12 12:41:19;;;;;;;50.17;24.00;;;12.10;99.90;;;;;;5054984;28;20468;-72
2022/11/12 12:43:49;;;;;;;42.58;23.17;;;12.10;99.90;;;;;;5055980;28;20079;-72
2022/11/12 12:46:18;;;;;;;45.50;23.38;;;12.10;99.90;;;;;;5056198;28;20028;-71
2022/11/12 12:48:46;;;;;;;47.88;25.20;;;12.00;99.90;;;;;;5054446;28;20024;-71
2022/11/12 12:51:12;;;;;;;58.75;25.83;;;11.90;99.90;;;;;;5056134;28;20104;-71
2022/11/12 12:53:39;;;;;;;51.38;25.58;;;12.00;99.90;;;;;;5055967;28;20029;-71
2022/11/12 12:56:25;;;;;;;57.50;25.13;;;12.00;99.90;;;;;;5055999;28;20066;-71
2022/11/12 12:58:52;;;;;;;51.65;26.02;;;11.80;99.90;;;;;;5055966;28;20025;-71